Time;durP1;ratioP1;P1;durP2;ratioP2;P2;SDS_P1;SDS_P2;PMS_P1;PMS_P2;Temp;Humidity;BMP_temperature;BMP_pressure;BME280_temperature;BME280_humidity;BME280_pressure;Samples;Min_cycle;Max_cycle;Signal;HPM_P1;HPM_P2
2023/12/06 05:30:28;;;;;;;;;14.25;12.25;;;;;16.55;45.14;101162.38;5032327;27;46448;-80
2023/12/06 05:32:54;;;;;;;;;15.00;13.00;;;;;16.47;45.01;101170.09;4996953;28;45557;-79
2023/12/06 05:35:20;;;;;;;;;13.00;11.75;;;;;16.31;45.03;101153.09;4997467;28;45750;-80
2023/12/06 05:37:45;;;;;;;;;13.50;11.75;;;;;16.28;45.28;101161.41;4997444;28;45300;-80
2023/12/06 05:40:10;;;;;;;;;12.75;11.75;;;;;16.32;45.52;101165.66;5001189;28;64194;-79
2023/12/06 05:42:36;;;;;;;;;8.75;8.75;;;;;16.38;45.38;101175.22;4996188;28;46066;-79
2023/12/06 05:45:01;;;;;;;;;11.50;11.50;;;;;16.34;45.08;101181.78;4997221;28;45393;-80
2023/12/06 05:47:26;;;;;;;;;12.50;12.50;;;;;16.30;45.43;101173.00;4997426;28;45335;-79
2023/12/06 05:49:52;;;;;;;;;10.75;10.75;;;;;16.40;45.31;101181.41;4997996;28;45411;-79
2023/12/06 05:52:17;;;;;;;;;12.75;11.75;;;;;16.38;45.12;101186.91;4997821;28;49720;-81
2023/12/06 05:54:42;;;;;;;;;10.50;10.25;;;;;16.39;45.30;101193.19;4996391;28;53787;-80
2023/12/06 05:57:09;;;;;;;;;14.00;10.25;;;;;16.45;44.90;101188.28;4997606;28;45367;-79
2023/12/06 05:59:34;;;;;;;;;11.75;11.75;;;;;16.31;44.97;101165.75;4997602;28;45352;-78
2023/12/06 06:02:00;;;;;;;;;11.75;10.00;;;;;16.43;44.88;101206.44;4995811;28;45451;-79
2023/12/06 06:04:26;;;;;;;;;12.50;12.50;;;;;16.46;44.93;101206.25;4996868;28;63187;-78
2023/12/06 06:06:51;;;;;;;;;8.00;8.00;;;;;16.27;45.09;101194.81;5008283;28;45381;-79
2023/12/06 06:09:17;;;;;;;;;8.00;8.00;;;;;16.27;45.23;101208.34;4997760;28;59985;-80
2023/12/06 06:11:42;;;;;;;;;10.25;10.25;;;;;16.30;45.28;101193.78;4997964;28;51706;-79
2023/12/06 06:14:07;;;;;;;;;12.75;10.25;;;;;16.29;45.25;101203.72;4998148;28;49749;-80
2023/12/06 06:16:33;;;;;;;;;12.75;12.75;;;;;16.25;45.39;101173.28;4996557;28;45303;-78
2023/12/06 06:18:58;;;;;;;;;15.00;15.00;;;;;16.43;45.08;101201.03;5008151;28;45269;-78
2023/12/06 06:21:23;;;;;;;;;16.50;14.75;;;;;16.48;45.12;101211.56;4996391;28;45263;-78
2023/12/06 06:23:49;;;;;;;;;14.75;14.75;;;;;16.51;45.00;101204.09;4995096;28;49933;-77
2023/12/06 06:26:14;;;;;;;;;10.25;10.25;;;;;16.41;45.02;101192.16;4995651;28;66485;-79
2023/12/06 06:28:39;;;;;;;;;11.75;10.75;;;;;16.34;44.75;101161.00;4998067;28;45413;-79
2023/12/06 06:31:05;;;;;;;;;13.75;11.50;;;;;16.61;44.77;101209.84;5001753;28;45187;-78
2023/12/06 06:33:30;;;;;;;;;9.50;8.25;;;;;16.57;44.56;101205.59;5015791;28;62458;-74
2023/12/06 06:35:55;;;;;;;;;13.50;11.25;;;;;16.43;44.87;101213.69;4998022;28;45420;-78
2023/12/06 06:38:21;;;;;;;;;9.50;9.50;;;;;16.42;45.04;101217.34;4998379;28;45465;-75
2023/12/06 06:40:46;;;;;;;;;12.00;9.25;;;;;16.31;44.76;101223.44;5004976;28;45264;-78
2023/12/06 06:43:11;;;;;;;;;12.75;12.75;;;;;16.37;44.96;101231.19;5015518;28;45365;-76
2023/12/06 06:45:42;;;;;;;;;13.00;11.25;;;;;16.27;44.93;101222.75;5015642;28;45408;-76
2023/12/06 06:48:08;;;;;;;;;10.50;8.75;;;;;16.30;45.10;101245.19;4997069;28;45323;-76
2023/12/06 06:50:33;;;;;;;;;13.75;11.00;;;;;16.37;44.96;101241.13;5015274;28;45797;-76
2023/12/06 06:53:00;;;;;;;;;9.75;9.75;;;;;16.37;45.18;101235.72;5014410;28;74803;-77
2023/12/06 06:55:25;;;;;;;;;11.25;11.25;;;;;16.26;45.10;101228.25;5015440;28;45289;-80
2023/12/06 06:57:51;;;;;;;;;9.25;9.25;;;;;16.29;44.94;101244.31;4997730;28;45261;-76
2023/12/06 07:00:16;;;;;;;;;12.00;10.25;;;;;16.41;45.01;101242.69;5014752;28;45341;-77
2023/12/06 07:02:42;;;;;;;;;15.75;13.50;;;;;16.53;44.90;101248.19;5015248;28;45419;-77
2023/12/06 07:05:12;;;;;;;;;12.75;12.75;;;;;16.50;44.69;101258.38;5015178;28;45495;-77
2023/12/06 07:07:37;;;;;;;;;10.50;8.50;;;;;16.47;45.21;101263.97;4997852;28;45301;-77
2023/12/06 07:10:04;;;;;;;;;12.50;11.75;;;;;16.45;45.01;101266.75;5014803;28;45511;-78
2023/12/06 07:12:29;;;;;;;;;12.50;10.25;;;;;16.19;44.77;101243.13;5014604;28;45351;-78
2023/12/06 07:14:55;;;;;;;;;11.00;11.00;;;;;16.25;44.84;101259.84;5014668;28;45471;-77
2023/12/06 07:17:21;;;;;;;;;11.75;11.00;;;;;16.16;45.10;101255.00;5014731;28;59768;-77
2023/12/06 07:19:46;;;;;;;;;11.00;11.00;;;;;16.20;45.43;101247.59;5015166;28;45349;-79
2023/12/06 07:22:12;;;;;;;;;15.25;10.75;;;;;16.28;44.98;101262.38;5014866;28;64021;-78
2023/12/06 07:24:37;;;;;;;;;13.75;10.50;;;;;16.31;45.09;101260.47;5014466;28;70473;-79
2023/12/06 07:27:03;;;;;;;;;9.00;9.00;;;;;16.23;44.91;101269.06;4997566;28;47581;-77
2023/12/06 07:29:28;;;;;;;;;10.00;8.50;;;;;16.24;44.91;101279.78;5015103;28;45459;-77
2023/12/06 07:31:54;;;;;;;;;12.75;12.00;;;;;16.25;45.18;101281.50;5014172;28;68576;-77
2023/12/06 07:34:19;;;;;;;;;9.50;9.50;;;;;16.26;44.95;101299.47;5015032;28;45421;-76
2023/12/06 07:36:45;;;;;;;;;8.75;8.75;;;;;16.28;45.23;101302.09;5015367;28;45471;-77
2023/12/06 07:39:11;;;;;;;;;11.50;11.50;;;;;16.30;45.07;101300.19;5014493;28;45444;-78
2023/12/06 07:41:36;;;;;;;;;10.00;10.00;;;;;16.30;44.97;101285.78;5022219;28;46537;-78
2023/12/06 07:44:01;;;;;;;;;11.75;9.25;;;;;16.24;44.78;101270.78;5014504;28;45376;-77
2023/12/06 07:46:26;;;;;;;;;14.50;12.25;;;;;16.18;44.68;101288.25;5014210;28;58708;-77
2023/12/06 07:48:52;;;;;;;;;11.75;9.50;;;;;16.30;44.96;101300.19;5013705;28;64738;-77
2023/12/06 07:51:17;;;;;;;;;13.50;11.75;;;;;16.18;45.08;101281.97;5014783;28;45379;-77
2023/12/06 07:53:43;;;;;;;;;12.75;10.25;;;;;16.16;45.35;101295.59;5013933;28;61159;-77
2023/12/06 07:56:09;;;;;;;;;13.00;11.25;;;;;16.11;45.09;101300.41;4997194;28;45383;-78
2023/12/06 07:58:34;;;;;;;;;12.00;8.00;;;;;16.23;45.35;101305.09;5013973;28;57187;-76
2023/12/06 08:01:00;;;;;;;;;12.50;10.50;;;;;16.24;44.83;101304.13;4997009;28;46127;-77
2023/12/06 08:03:31;;;;;;;;;11.50;10.00;;;;;16.32;44.75;101314.50;5014784;28;45238;-77
2023/12/06 08:05:59;;;;;;;;;8.00;8.00;;;;;16.28;44.78;101311.09;4997504;28;45398;-76
2023/12/06 08:08:25;;;;;;;;;12.75;9.75;;;;;16.30;44.63;101318.25;5014718;28;45348;-78
2023/12/06 08:10:50;;;;;;;;;12.75;10.50;;;;;16.31;44.82;101314.56;5014743;28;45261;-78
2023/12/06 08:13:16;;;;;;;;;12.25;10.50;;;;;16.31;44.75;101317.28;5014549;28;45456;-78
2023/12/06 08:15:41;;;;;;;;;12.00;8.00;;;;;16.38;44.96;101313.22;4997275;28;45263;-78
2023/12/06 08:18:07;;;;;;;;;11.25;10.50;;;;;16.33;44.66;101321.66;5013787;28;67301;-77
2023/12/06 08:20:34;;;;;;;;;12.50;12.50;;;;;16.33;44.80;101328.91;5014520;28;46071;-75
2023/12/06 08:23:00;;;;;;;;;10.50;10.50;;;;;16.31;44.97;101338.94;4997437;28;45495;-77
2023/12/06 08:25:25;;;;;;;;;10.50;10.50;;;;;16.25;44.74;101334.72;5016271;28;45320;-77
2023/12/06 08:27:50;;;;;;;;;12.50;12.50;;;;;16.26;45.03;101333.78;5017958;28;45374;-76
2023/12/06 08:30:16;;;;;;;;;8.75;8.75;;;;;16.20;44.90;101320.63;5018142;28;45388;-76
2023/12/06 08:32:41;;;;;;;;;13.50;11.75;;;;;16.10;44.79;101322.13;5017721;28;45489;-77
2023/12/06 08:35:07;;;;;;;;;11.00;11.00;;;;;16.13;44.98;101339.06;5018110;28;54584;-78
2023/12/06 08:37:32;;;;;;;;;12.75;12.00;;;;;15.90;45.31;101312.53;5017063;28;45698;-76
2023/12/06 08:39:57;;;;;;;;;11.25;8.50;;;;;15.99;45.00;101332.75;5020635;28;56048;-76
2023/12/06 08:42:22;;;;;;;;;10.75;10.75;;;;;15.97;45.43;101342.78;5021876;28;70904;-77
2023/12/06 08:44:48;;;;;;;;;12.50;12.50;;;;;15.85;45.34;101342.50;5017500;28;61928;-77
2023/12/06 08:47:13;;;;;;;;;4.50;4.50;;;;;15.91;45.23;101345.84;5015670;28;71511;-76
2023/12/06 08:49:39;;;;;;;;;10.25;10.25;;;;;16.02;45.09;101360.47;5017112;28;75427;-77
2023/12/06 08:52:06;;;;;;;;;12.00;10.00;;;;;15.94;45.64;101357.34;5017479;28;58460;-77
2023/12/06 08:54:33;;;;;;;;;13.25;9.75;;;;;15.98;45.29;101341.81;5018130;28;45390;-77
2023/12/06 08:56:58;;;;;;;;;10.75;10.75;;;;;15.95;45.36;101342.84;5017680;28;45408;-77
2023/12/06 08:59:23;;;;;;;;;9.00;8.75;;;;;15.94;45.58;101348.34;5017051;28;64389;-78
2023/12/06 09:01:48;;;;;;;;;10.00;8.00;;;;;15.92;45.59;101344.84;5017660;28;45364;-77
2023/12/06 09:04:14;;;;;;;;;16.00;14.75;;;;;15.96;45.27;101343.72;5017099;28;66072;-75
2023/12/06 09:06:39;;;;;;;;;13.00;11.25;;;;;16.05;45.56;101346.75;5016569;28;72373;-77
2023/12/06 09:09:05;;;;;;;;;9.25;9.25;;;;;15.93;45.13;101308.75;5017190;28;61743;-77
2023/12/06 09:11:31;;;;;;;;;14.00;14.00;;;;;15.97;45.01;101321.13;5017612;28;45337;-77
2023/12/06 09:13:56;;;;;;;;;10.25;10.25;;;;;16.04;44.79;101339.59;5017601;28;45329;-78
2023/12/06 09:16:21;;;;;;;;;7.75;7.75;;;;;16.08;45.06;101334.88;5015559;28;67846;-77
2023/12/06 09:18:46;;;;;;;;;11.00;11.00;;;;;16.10;45.04;101347.34;5017055;28;57280;-77
2023/12/06 09:21:13;;;;;;;;;12.75;9.00;;;;;16.11;44.71;101343.69;5016733;28;62843;-76
2023/12/06 09:23:39;;;;;;;;;13.00;13.00;;;;;16.14;44.87;101343.53;5017436;28;45324;-76
2023/12/06 09:26:04;;;;;;;;;13.00;11.50;;;;;16.18;44.87;101346.91;5017037;28;45357;-77
2023/12/06 09:28:30;;;;;;;;;12.00;10.25;;;;;16.31;44.58;101352.47;5017177;28;45257;-76
2023/12/06 09:30:55;;;;;;;;;11.50;10.25;;;;;16.18;44.52;101339.66;5015690;28;73260;-77
2023/12/06 09:33:20;;;;;;;;;17.00;13.00;;;;;16.38;44.67;101352.00;4998589;28;57398;-78
2023/12/06 09:35:46;;;;;;;;;14.50;9.00;;;;;16.30;44.55;101339.88;5016887;28;45443;-78
2023/12/06 09:38:12;;;;;;;;;10.00;9.25;;;;;16.33;44.52;101346.00;5015945;28;50228;-77
2023/12/06 09:40:37;;;;;;;;;14.00;14.00;;;;;16.33;44.23;101335.19;5007038;28;45735;-79
2023/12/06 09:43:02;;;;;;;;;14.75;13.25;;;;;16.45;44.32;101360.59;5017253;28;45415;-78
2023/12/06 09:45:29;;;;;;;;;12.00;10.25;;;;;16.54;44.62;101366.34;5016879;28;45920;-76
2023/12/06 09:47:55;;;;;;;;;14.25;12.00;;;;;16.46;44.07;101352.41;5017078;28;46049;-78
2023/12/06 09:50:21;;;;;;;;;14.50;14.50;;;;;16.57;44.29;101362.59;5016730;28;45348;-78
2023/12/06 09:52:54;;;;;;;;;9.25;9.25;;;;;16.57;44.15;101352.63;5016734;28;45432;-77
2023/12/06 09:55:23;;;;;;;;;16.25;12.25;;;;;16.66;43.95;101369.31;5016285;28;46199;-77
2023/12/06 09:57:52;;;;;;;;;13.75;12.00;;;;;16.64;44.15;101369.41;5016676;28;46078;-77
2023/12/06 10:00:18;;;;;;;;;13.25;11.50;;;;;16.51;44.10;101360.22;5016540;28;45431;-77
2023/12/06 10:02:54;;;;;;;;;13.50;12.75;;;;;16.72;43.95;101385.16;5016119;28;45487;-77
2023/12/06 10:05:20;;;;;;;;;18.25;15.50;;;;;16.76;43.91;101375.91;5016400;28;45502;-78
2023/12/06 10:07:46;;;;;;;;;15.50;15.50;;;;;16.74;43.75;101385.94;4982441;28;47430;-78
2023/12/06 10:10:16;;;;;;;;;14.25;13.00;;;;;16.81;43.57;101382.78;5016867;28;45421;-77
2023/12/06 10:12:47;;;;;;;;;16.75;13.50;;;;;16.89;43.44;101372.34;5016623;28;45393;-77
2023/12/06 10:15:13;;;;;;;;;17.00;14.25;;;;;16.83;43.53;101361.00;5016111;28;45262;-76
2023/12/06 10:17:39;;;;;;;;;15.00;15.00;;;;;17.01;43.53;101386.97;5016890;28;45453;-77
2023/12/06 10:20:05;;;;;;;;;13.00;13.00;;;;;17.03;43.64;101385.00;5021625;28;45407;-77
2023/12/06 10:22:30;;;;;;;;;15.00;15.00;;;;;16.97;43.52;101385.41;5024621;28;45206;-78
2023/12/06 10:24:56;;;;;;;;;18.75;15.50;;;;;16.95;43.34;101382.78;5024273;28;47530;-78
2023/12/06 10:27:23;;;;;;;;;13.75;13.75;;;;;16.97;43.18;101378.13;5001454;28;47190;-76
2023/12/06 10:29:51;;;;;;;;;16.50;15.00;;;;;16.98;43.45;101384.44;5016040;28;45664;-78
2023/12/06 10:32:17;;;;;;;;;18.25;13.50;;;;;16.93;43.09;101365.75;5016242;28;45363;-76
2023/12/06 10:34:42;;;;;;;;;14.75;14.25;;;;;17.12;42.88;101387.13;5015914;28;45563;-76
2023/12/06 10:37:11;;;;;;;;;14.25;13.25;;;;;17.13;43.46;101375.34;4998405;28;48107;-76
2023/12/06 10:39:38;;;;;;;;;17.50;16.00;;;;;17.23;43.14;101364.78;5015942;28;45443;-76
2023/12/06 10:42:10;;;;;;;;;16.75;13.75;;;;;17.45;42.57;101375.09;5006568;28;45424;-76
2023/12/06 10:44:37;;;;;;;;;17.00;16.25;;;;;17.50;42.29;101373.00;5015567;28;45443;-78
2023/12/06 10:47:04;;;;;;;;;17.00;15.50;;;;;17.49;42.27;101380.25;5016186;28;45344;-77
2023/12/06 10:49:32;;;;;;;;;15.25;15.25;;;;;17.49;42.39;101377.53;5015064;28;45344;-78
2023/12/06 10:51:59;;;;;;;;;11.00;10.25;;;;;17.55;41.87;101378.97;5016178;28;45341;-78
2023/12/06 10:54:26;;;;;;;;;15.00;15.00;;;;;17.58;41.69;101379.66;5015933;28;45475;-76
2023/12/06 10:56:53;;;;;;;;;17.50;16.00;;;;;17.63;42.13;101379.38;4997908;28;47086;-77
2023/12/06 10:59:20;;;;;;;;;14.50;14.00;;;;;17.72;41.75;101376.94;5015775;28;45357;-77
2023/12/06 11:01:47;;;;;;;;;21.00;17.00;;;;;17.67;41.80;101364.66;5015893;28;45447;-76
2023/12/06 11:04:15;;;;;;;;;7.25;3.25;;;;;17.93;41.88;101363.81;5015071;28;45667;-76
2023/12/06 11:06:49;;;;;;;;;15.50;14.00;;;;;18.44;41.14;101374.84;4997970;28;46216;-77
2023/12/06 11:09:22;;;;;;;;;17.75;17.50;;;;;19.21;39.36;101373.94;5015777;28;45232;-78
2023/12/06 11:12:16;;;;;;;;;16.25;16.25;;;;;19.70;37.83;101356.78;5014483;28;45417;-78
2023/12/06 11:14:47;;;;;;;;;18.50;16.75;;;;;19.90;37.79;101362.47;5015544;28;45546;-77
2023/12/06 11:17:21;;;;;;;;;17.00;15.25;;;;;20.03;38.04;101370.56;5015746;28;45985;-78
2023/12/06 11:19:46;;;;;;;;;16.75;16.50;;;;;20.06;37.53;101358.59;5015201;28;45978;-77
2023/12/06 11:22:12;;;;;;;;;16.00;16.00;;;;;20.05;37.56;101370.47;5015713;28;45163;-76
2023/12/06 11:24:38;;;;;;;;;14.00;14.00;;;;;20.03;37.97;101367.84;5015391;28;45325;-77
2023/12/06 11:27:07;;;;;;;;;14.00;14.00;;;;;19.93;37.59;101355.91;5015385;28;46095;-77
2023/12/06 11:29:32;;;;;;;;;15.75;14.25;;;;;19.96;38.19;101358.41;5015177;28;45520;-77
2023/12/06 11:31:58;;;;;;;;;16.50;16.50;;;;;19.98;37.89;101361.91;5015227;28;45305;-77
2023/12/06 11:34:37;;;;;;;;;15.25;14.50;;;;;19.74;37.86;101361.88;5014562;28;45269;-76
2023/12/06 11:37:16;;;;;;;;;14.00;14.00;;;;;19.62;38.14;101368.22;5015091;28;45305;-77
2023/12/06 11:39:46;;;;;;;;;20.00;19.00;;;;;19.71;38.27;101363.97;4998402;28;45592;-79
2023/12/06 11:42:16;;;;;;;;;19.75;15.00;;;;;19.70;38.25;101356.78;5022472;28;45456;-76
2023/12/06 11:44:51;;;;;;;;;18.25;16.00;;;;;19.68;38.45;101354.16;5015002;28;45452;-78
2023/12/06 11:47:16;;;;;;;;;13.25;11.75;;;;;19.76;37.65;101354.47;4997127;28;46356;-78
2023/12/06 11:49:51;;;;;;;;;14.25;11.25;;;;;19.77;37.16;101349.91;5015141;28;45517;-77
2023/12/06 11:52:16;;;;;;;;;9.75;9.75;;;;;19.85;37.18;101347.47;5014983;28;45359;-77
2023/12/06 11:54:44;;;;;;;;;11.75;10.75;;;;;19.87;37.50;101350.94;5014658;28;47413;-76
2023/12/06 11:57:11;;;;;;;;;10.50;10.50;;;;;19.81;37.01;101343.25;5014759;28;46575;-78
2023/12/06 11:59:37;;;;;;;;;11.00;10.50;;;;;19.79;36.98;101350.66;5013943;28;45460;-77
2023/12/06 12:02:02;;;;;;;;;13.50;10.75;;;;;19.72;36.88;101347.53;5014426;28;45284;-78
2023/12/06 12:04:28;;;;;;;;;15.25;12.00;;;;;19.74;36.41;101353.69;5014389;28;45231;-76
2023/12/06 12:06:53;;;;;;;;;12.50;12.00;;;;;19.69;36.42;101338.72;5014348;28;46233;-77
2023/12/06 12:09:21;;;;;;;;;12.25;12.25;;;;;19.73;36.31;101351.13;4996847;28;45401;-77
2023/12/06 12:11:46;;;;;;;;;13.50;13.25;;;;;19.78;36.34;101354.34;5011247;28;45456;-76
2023/12/06 12:14:12;;;;;;;;;17.50;14.50;;;;;19.83;36.23;101368.47;5014170;28;45336;-74
2023/12/06 12:16:39;;;;;;;;;15.00;13.50;;;;;19.85;36.40;101370.09;5014607;28;45296;-76
2023/12/06 12:19:06;;;;;;;;;11.50;11.50;;;;;19.87;35.83;101365.41;5013633;28;45456;-77
2023/12/06 12:21:32;;;;;;;;;16.50;14.00;;;;;19.93;35.68;101350.47;5013630;28;45349;-77
2023/12/06 12:23:57;;;;;;;;;12.25;12.25;;;;;20.05;35.26;101348.69;5013876;28;45471;-76
2023/12/06 12:26:23;;;;;;;;;12.75;12.25;;;;;20.14;35.44;101339.81;5012684;28;45901;-78
2023/12/06 12:28:48;;;;;;;;;14.50;11.75;;;;;20.22;35.72;101342.84;5012478;28;45353;-80
2023/12/06 12:31:19;;;;;;;;;15.50;13.25;;;;;20.37;35.28;101352.56;5013330;28;45330;-78
2023/12/06 12:33:44;;;;;;;;;11.00;10.00;;;;;20.36;34.52;101323.59;4995627;28;45936;-79
2023/12/06 12:36:10;;;;;;;;;10.75;10.75;;;;;20.57;35.39;101343.72;5011768;28;45440;-75
2023/12/06 12:38:38;;;;;;;;;12.75;11.25;;;;;20.65;35.01;101343.13;5023673;28;45413;-77
2023/12/06 12:41:06;;;;;;;;;12.00;12.00;;;;;20.54;34.85;101333.06;4998346;28;45556;-78
2023/12/06 12:43:32;;;;;;;;;13.75;12.50;;;;;20.60;34.62;101329.84;5012372;28;45317;-77
2023/12/06 12:45:57;;;;;;;;;12.00;12.00;;;;;20.62;34.64;101337.91;5013902;28;45407;-76
2023/12/06 12:48:23;;;;;;;;;11.75;9.50;;;;;20.49;34.31;101323.53;5013565;28;45360;-77
2023/12/06 12:50:49;;;;;;;;;8.00;6.50;;;;;20.44;34.48;101325.72;4994993;28;45565;-77
2023/12/06 12:53:14;;;;;;;;;13.00;9.75;;;;;20.49;34.00;101338.00;5013123;28;45342;-77
2023/12/06 12:55:41;;;;;;;;;11.75;11.75;;;;;20.41;34.46;101336.88;5012978;28;45471;-77
2023/12/06 12:58:08;;;;;;;;;12.00;8.00;;;;;20.36;35.31;101335.34;5010435;28;45350;-76
2023/12/06 13:00:35;;;;;;;;;12.75;10.00;;;;;20.27;34.66;101332.44;5013700;28;45514;-76
2023/12/06 13:03:01;;;;;;;;;8.25;8.25;;;;;20.23;34.56;101330.97;5013322;28;45527;-76
2023/12/06 13:05:29;;;;;;;;;4.50;4.50;;;;;20.17;34.87;101336.84;5012644;28;65606;-77
2023/12/06 13:07:58;;;;;;;;;9.25;9.25;;;;;20.15;34.78;101334.28;4995495;28;45421;-76
2023/12/06 13:10:29;;;;;;;;;8.50;8.50;;;;;19.86;34.61;101331.03;5013333;28;45408;-77
2023/12/06 13:12:58;;;;;;;;;6.00;6.00;;;;;19.81;34.85;101329.66;5014832;28;45581;-77
2023/12/06 13:15:24;;;;;;;;;10.50;7.00;;;;;19.81;35.24;101321.47;5016405;28;46014;-76
2023/12/06 13:17:50;;;;;;;;;8.75;6.50;;;;;19.84;34.83;101341.16;5016575;28;45459;-77
2023/12/06 13:20:16;;;;;;;;;6.00;6.00;;;;;19.55;34.51;101327.03;5016682;28;45877;-77
2023/12/06 13:22:41;;;;;;;;;6.00;6.00;;;;;19.48;34.78;101336.59;5016550;28;45602;-77
2023/12/06 13:25:10;;;;;;;;;9.50;7.50;;;;;19.39;35.21;101328.22;5017069;28;59888;-77
2023/12/06 13:27:36;;;;;;;;;8.25;6.50;;;;;19.46;34.38;101332.22;5016396;28;45226;-77
2023/12/06 13:30:02;;;;;;;;;6.00;6.00;;;;;19.44;34.62;101335.06;5002078;28;45330;-76
2023/12/06 13:32:28;;;;;;;;;10.75;9.00;;;;;19.45;34.86;101336.81;5017010;28;45703;-77
2023/12/06 13:34:53;;;;;;;;;9.75;7.25;;;;;19.52;34.66;101326.38;5024413;28;46740;-77
2023/12/06 13:37:18;;;;;;;;;7.25;6.00;;;;;19.53;34.02;101331.69;5023816;28;45538;-78
2023/12/06 13:39:47;;;;;;;;;8.75;6.75;;;;;19.47;34.60;101314.94;5017107;28;55869;-79
2023/12/06 13:42:14;;;;;;;;;10.50;8.75;;;;;19.63;34.75;101321.00;5023599;28;45563;-78
2023/12/06 13:44:40;;;;;;;;;8.75;6.00;;;;;19.74;34.91;101331.06;5016421;28;45559;-77
2023/12/06 13:47:05;;;;;;;;;4.00;4.00;;;;;19.65;34.07;101322.59;5017205;28;45269;-78
2023/12/06 13:49:31;;;;;;;;;4.25;4.25;;;;;19.76;34.21;101335.41;5017489;28;45381;-77
2023/12/06 13:51:57;;;;;;;;;6.50;6.50;;;;;19.80;34.20;101336.94;4999390;28;46536;-77
2023/12/06 13:54:22;;;;;;;;;6.25;6.25;;;;;19.75;33.98;101324.66;5016355;28;45523;-77
2023/12/06 13:56:48;;;;;;;;;9.25;6.25;;;;;19.65;33.64;101343.50;4998915;28;45371;-78
2023/12/06 13:59:16;;;;;;;;;9.25;7.25;;;;;19.53;33.91;101336.25;5015820;28;56046;-79
2023/12/06 14:01:42;;;;;;;;;7.75;7.75;;;;;19.40;34.13;101319.94;5016778;28;45537;-76
2023/12/06 14:04:07;;;;;;;;;8.75;5.75;;;;;19.44;34.38;101348.66;4998855;28;46939;-78
2023/12/06 14:06:32;;;;;;;;;7.00;7.00;;;;;19.38;34.54;101351.84;4998621;28;45369;-75
2023/12/06 14:08:58;;;;;;;;;8.25;6.75;;;;;19.40;34.87;101357.13;5016774;28;45335;-78
2023/12/06 14:11:25;;;;;;;;;10.00;8.50;;;;;18.97;35.51;101334.94;5016715;28;45491;-76
2023/12/06 14:13:51;;;;;;;;;10.50;9.25;;;;;18.90;35.23;101343.50;5016441;28;46277;-76
2023/12/06 14:16:18;;;;;;;;;10.50;10.50;;;;;18.83;35.32;101353.06;5016547;28;45234;-79
2023/12/06 14:18:44;;;;;;;;;8.75;7.75;;;;;18.77;35.76;101342.63;4999047;28;45496;-77
2023/12/06 14:21:09;;;;;;;;;13.25;9.25;;;;;18.86;35.94;101354.72;5016411;28;45404;-76
2023/12/06 14:23:34;;;;;;;;;12.25;11.25;;;;;18.63;36.09;101333.72;5016468;28;45268;-77
2023/12/06 14:26:00;;;;;;;;;12.75;10.25;;;;;18.53;36.77;101350.63;4998439;28;45701;-77
2023/12/06 14:28:25;;;;;;;;;13.25;11.75;;;;;18.21;37.15;101319.38;5015726;28;58369;-77
2023/12/06 14:30:50;;;;;;;;;10.25;10.00;;;;;18.50;37.03;101360.81;5015623;28;56926;-78
2023/12/06 14:33:15;;;;;;;;;11.50;11.00;;;;;18.53;36.47;101349.75;4997440;28;72840;-79
2023/12/06 14:35:41;;;;;;;;;9.25;9.25;;;;;18.47;36.11;101359.19;5015552;28;66222;-78
2023/12/06 14:38:07;;;;;;;;;11.25;8.00;;;;;18.47;35.25;101364.63;5015690;28;53915;-77
2023/12/06 14:40:33;;;;;;;;;7.50;6.50;;;;;18.35;35.33;101342.88;5005667;28;45464;-77
2023/12/06 14:42:58;;;;;;;;;7.75;5.50;;;;;18.29;35.33;101338.72;5015873;28;45345;-76
2023/12/06 14:45:23;;;;;;;;;4.25;3.75;;;;;18.49;34.65;101361.78;5015340;28;61382;-77
2023/12/06 14:47:49;;;;;;;;;5.75;5.00;;;;;18.45;34.95;101349.44;5016389;28;45793;-77
2023/12/06 14:50:14;;;;;;;;;5.00;5.00;;;;;18.41;34.78;101353.31;5015778;28;45304;-78
2023/12/06 14:52:40;;;;;;;;;8.75;7.00;;;;;18.43;35.30;101364.94;5015964;28;45602;-76
2023/12/06 14:55:06;;;;;;;;;9.25;7.00;;;;;18.48;35.45;101357.34;5016113;28;45231;-77
2023/12/06 14:57:31;;;;;;;;;9.75;6.25;;;;;18.52;35.22;101334.44;4998120;28;45452;-77
2023/12/06 14:59:57;;;;;;;;;7.75;7.75;;;;;18.74;35.27;101356.44;5015570;28;45221;-77
2023/12/06 15:02:22;;;;;;;;;5.00;4.50;;;;;18.73;34.72;101354.69;5014763;28;45379;-77
2023/12/06 15:04:47;;;;;;;;;5.25;5.25;;;;;18.61;34.77;101341.97;5014997;28;66885;-78
2023/12/06 15:07:12;;;;;;;;;5.75;5.25;;;;;18.83;34.76;101371.22;5015546;28;52611;-78
2023/12/06 15:09:38;;;;;;;;;7.25;5.50;;;;;18.82;35.01;101375.78;4997122;28;64683;-78
2023/12/06 15:12:03;;;;;;;;;4.00;4.00;;;;;18.73;34.49;101368.25;5015462;28;46278;-77
2023/12/06 15:14:28;;;;;;;;;9.00;5.00;;;;;18.77;34.27;101374.38;5015602;28;45383;-78
2023/12/06 15:16:54;;;;;;;;;10.00;5.00;;;;;18.63;34.25;101356.31;4997041;28;61894;-76
2023/12/06 15:19:19;;;;;;;;;4.25;4.25;;;;;18.72;34.83;101373.81;5015041;28;56926;-77
2023/12/06 15:21:45;;;;;;;;;5.50;5.50;;;;;18.74;34.95;101364.56;5014490;28;64349;-78
2023/12/06 15:24:10;;;;;;;;;9.00;5.50;;;;;18.82;34.37;101374.91;5015620;28;45387;-77
2023/12/06 15:26:36;;;;;;;;;7.75;5.50;;;;;18.76;34.31;101378.94;5016474;28;45440;-77
2023/12/06 15:29:02;;;;;;;;;5.50;4.25;;;;;18.72;34.33;101377.38;5015747;28;45493;-79
2023/12/06 15:31:27;;;;;;;;;6.50;4.00;;;;;18.59;34.60;101364.78;5015882;28;45480;-77
2023/12/06 15:33:53;;;;;;;;;6.50;6.50;;;;;18.60;34.73;101382.81;5016909;28;45305;-78
2023/12/06 15:36:18;;;;;;;;;5.25;5.25;;;;;18.53;35.01;101391.38;5015120;28;60337;-77
2023/12/06 15:38:44;;;;;;;;;8.50;8.00;;;;;18.38;35.13;101381.53;5015838;28;48589;-78
2023/12/06 15:41:09;;;;;;;;;10.00;8.75;;;;;18.37;35.53;101392.53;5024588;28;45332;-77
2023/12/06 15:43:34;;;;;;;;;5.00;5.00;;;;;18.27;35.67;101394.13;5021107;28;45285;-78
2023/12/06 15:46:00;;;;;;;;;7.00;5.50;;;;;18.10;35.87;101378.97;5021198;28;45335;-77
2023/12/06 15:48:25;;;;;;;;;10.50;9.00;;;;;18.06;36.57;101391.84;5020115;28;53529;-79
2023/12/06 15:50:50;;;;;;;;;8.50;6.25;;;;;18.15;36.16;101385.81;5015321;28;46207;-78
2023/12/06 15:53:16;;;;;;;;;10.00;7.00;;;;;18.07;36.29;101371.91;5015030;28;45412;-77
2023/12/06 15:55:42;;;;;;;;;13.50;9.00;;;;;18.17;36.48;101396.56;4997746;28;45299;-78
2023/12/06 15:58:07;;;;;;;;;11.00;8.00;;;;;18.00;36.62;101385.97;5014743;28;45640;-77
2023/12/06 16:00:33;;;;;;;;;10.25;10.25;;;;;18.11;36.64;101391.56;5014847;28;45527;-77
2023/12/06 16:02:58;;;;;;;;;8.00;7.75;;;;;18.02;37.07;101386.75;5015324;28;45281;-78
2023/12/06 16:05:23;;;;;;;;;11.00;9.50;;;;;17.84;37.07;101393.38;5015047;28;45233;-77
2023/12/06 16:07:49;;;;;;;;;12.25;10.75;;;;;17.91;36.86;101402.84;5014620;28;52825;-77
2023/12/06 16:10:14;;;;;;;;;13.00;13.00;;;;;17.92;36.88;101410.03;5014214;28;64459;-77
2023/12/06 16:12:40;;;;;;;;;14.00;12.25;;;;;17.88;37.26;101405.75;5014899;28;45328;-78
2023/12/06 16:15:07;;;;;;;;;13.00;11.50;;;;;17.80;37.47;101400.84;5014691;28;47406;-77
2023/12/06 16:17:36;;;;;;;;;10.25;10.25;;;;;17.80;37.46;101418.97;5015429;28;45380;-77
2023/12/06 16:20:03;;;;;;;;;10.00;10.00;;;;;17.60;37.69;101410.25;5014586;28;45282;-77
2023/12/06 16:22:28;;;;;;;;;11.00;9.00;;;;;17.44;37.57;101370.69;5014762;28;45275;-77
2023/12/06 16:24:54;;;;;;;;;9.00;9.00;;;;;17.59;36.79;101413.94;5014818;28;45235;-78
2023/12/06 16:27:19;;;;;;;;;11.00;9.25;;;;;17.55;37.23;101409.66;5014352;28;52017;-77
2023/12/06 16:29:44;;;;;;;;;12.25;12.25;;;;;17.54;37.71;101405.22;5014299;28;45922;-77
2023/12/06 16:32:10;;;;;;;;;14.00;14.00;;;;;17.65;37.82;101416.28;4996532;28;53180;-79
2023/12/06 16:34:35;;;;;;;;;15.00;14.75;;;;;17.62;38.27;101418.31;5012431;28;64556;-77
2023/12/06 16:37:00;;;;;;;;;15.00;14.00;;;;;17.55;38.31;101396.13;5014144;28;56245;-78
2023/12/06 16:39:26;;;;;;;;;15.00;15.00;;;;;17.70;38.88;101416.84;5013933;28;48422;-78